Dades meteomassalio
Diari Summary for Gener 25, 2018 Units:  Metric    English   Both
« Previous Day
Next Day »
Diari Semanal Mensual Anual Personalitzat
  Maxima: Minima: Mijana:
Temperatura: -17.8 °C -18.1 °C -14.6 °C
Rosada: -17.8 °C -18.7 °C -15.4 °C
Humitat: Humidity % 74 % 89 %
Velocitat del vent: 0 km/h 0 km/h 6.8 km/h
Racha vent: 0 km/h - -
Vent:- - SSE
Pressio: 0 hPa 34476.3 hPa -
Pluja: 109.22 mm    
Historical Graphs
 
 
Tabular Data for Gener 25, 2018
Time Temperature Dew Point Pressure Wind Wind Speed Wind Gust Humidity Rainfall Rate (Hourly) solar Conditions
-17.8 °C -17.8 °C 0 hPa Calm     Humidity % 0 mm SolarRadiationWatts/m^2 W/m2 Conditions
00:03 -16.8 °C -17.6 °C 34797.9 hPa Calm     91 % 0 mm 0.0 W/m2 RA
00:08 -17.2 °C -17.9 °C 34797.9 hPa Calm     91 % 0 mm 0.0 W/m2 CLR
00:13 -17.2 °C -17.9 °C 34797.9 hPa Calm     91 % 0 mm 0.0 W/m2 CLR
00:18 -17.2 °C -17.9 °C 34797.9 hPa Calm     91 % 0 mm 0.0 W/m2 CLR
00:23 -16.8 °C -17.6 °C 34797.9 hPa Calm     91 % 0 mm 0.0 W/m2 CLR
00:28 -17.2 °C -17.9 °C 34797.9 hPa Calm     91 % 0 mm 0.0 W/m2 CLR
00:33 -17.2 °C -17.9 °C 34797.9 hPa Calm     91 % 0 mm 0.0 W/m2 CLR
00:38 -17.2 °C -17.9 °C 34784.4 hPa Calm     91 % 0 mm 0.0 W/m2 CLR
00:43 -17.2 °C -17.9 °C 34784.4 hPa Calm     91 % 0 mm 0.0 W/m2 CLR
00:48 -17.2 °C -17.9 °C 34784.4 hPa Calm     91 % 0 mm 0.0 W/m2 CLR
00:53 -17.2 °C -17.8 °C 34784.4 hPa Calm     92 % 0 mm 0.0 W/m2 CLR
00:58 -17.2 °C -17.8 °C 34784.4 hPa Calm     92 % 0 mm 0.0 W/m2 CLR
01:03 -17.2 °C -17.8 °C 34784.4 hPa Calm     92 % 0 mm 0.0 W/m2 CLR
01:08 -17.2 °C -17.8 °C 34784.4 hPa Calm     92 % 0 mm 0.0 W/m2 CLR
01:13 -17.4 °C -18.2 °C 34784.4 hPa Calm     91 % 0 mm 0.0 W/m2 CLR
01:18 -17.4 °C -18.2 °C 34774.2 hPa Calm     91 % 0 mm 0.0 W/m2 CLR
01:23 -17.4 °C -18.2 °C 34774.2 hPa Calm     91 % 0 mm 0.0 W/m2 CLR
01:28 -17.4 °C -18.2 °C 34774.2 hPa Calm     91 % 0 mm 0.0 W/m2 CLR
01:33 -17.4 °C -18.1 °C 34774.2 hPa Calm     92 % 0 mm 0.0 W/m2 CLR
01:38 -17.4 °C -18.1 °C 34760.7 hPa Calm     92 % 0 mm 0.0 W/m2 CLR
01:43 -17.4 °C -18.1 °C 34760.7 hPa Calm     92 % 0 mm 0.0 W/m2 CLR
01:48 -17.2 °C -17.8 °C 34760.7 hPa Calm     92 % 0 mm 0.0 W/m2 CLR
01:53 -17.2 °C -17.8 °C 34760.7 hPa Calm     92 % 0 mm 0.0 W/m2 CLR
01:58 -17.2 °C -17.8 °C 34760.7 hPa Calm     92 % 0 mm 0.0 W/m2 CLR
02:03 -17.4 °C -18.1 °C 34760.7 hPa Calm     92 % 0 mm 0.0 W/m2 CLR
02:08 -17.4 °C -18.2 °C 34760.7 hPa Calm     91 % 0 mm 0.0 W/m2 CLR
02:13 -17.4 °C -18.2 °C 34760.7 hPa Calm     91 % 0 mm 0.0 W/m2 CLR
02:18 -17.4 °C -18.1 °C 34760.7 hPa Calm     92 % 0 mm 0.0 W/m2 CLR
02:23 -17.4 °C -18.1 °C 34760.7 hPa Calm     92 % 0 mm 0.0 W/m2 CLR
02:28 -17.2 °C -17.8 °C 34760.7 hPa Calm     92 % 0 mm 0.0 W/m2 CLR
02:33 -17.2 °C -17.8 °C 34760.7 hPa Calm     92 % 0 mm 0.0 W/m2 CLR
02:38 -17.2 °C -17.8 °C 34760.7 hPa Calm     92 % 0 mm 0.0 W/m2 CLR
02:43 -17.2 °C -17.8 °C 34760.7 hPa Calm     92 % 0 mm 0.0 W/m2 CLR
02:48 -17.4 °C -18.1 °C 34760.7 hPa Calm     92 % 0 mm 0.0 W/m2 CLR
02:53 -17.4 °C -18.1 °C 34760.7 hPa Calm     92 % 0 mm 0.0 W/m2 CLR
02:58 -17.2 °C -17.8 °C 34760.7 hPa Calm     92 % 0 mm 0.0 W/m2 CLR
03:03 -17.4 °C -18.1 °C 34760.7 hPa Calm     92 % 0 mm 0.0 W/m2 CLR
03:08 -17.4 °C -18.1 °C 34760.7 hPa Calm     92 % 0 mm 0.0 W/m2 CLR
03:13 -17.8 °C -18.4 °C 34760.7 hPa Calm     92 % 0 mm 0.0 W/m2 CLR
03:18 -17.8 °C -18.4 °C 34750.5 hPa Calm     92 % 0 mm 0.0 W/m2 CLR
03:23 -17.8 °C -18.4 °C 34750.5 hPa Calm     92 % 0 mm 0.0 W/m2 CLR
03:28 -17.8 °C -18.4 °C 34750.5 hPa Calm     92 % 0 mm 0.0 W/m2 CLR
03:33 -17.8 °C -18.4 °C 34750.5 hPa Calm     92 % 0 mm 0.0 W/m2 CLR
03:38 -17.8 °C -18.4 °C 34750.5 hPa Calm     92 % 0 mm 0.0 W/m2 CLR
03:43 -17.8 °C -18.4 °C 34750.5 hPa Calm     92 % 0 mm 0.0 W/m2 CLR
03:48 -18.1 °C -18.7 °C 34750.5 hPa Calm     93 % 0 mm 0.0 W/m2 CLR
03:54 -18.1 °C -18.7 °C 34750.5 hPa Calm     92 % 0 mm 0.0 W/m2 CLR
03:59 -18.1 °C -18.7 °C 34740.4 hPa Calm     92 % 0 mm 0.0 W/m2 CLR
04:04 -18.1 °C -18.7 °C 34740.4 hPa Calm     92 % 0 mm 0.0 W/m2 CLR
04:09 -18.1 °C -18.7 °C 34740.4 hPa Calm     92 % 0 mm 0.0 W/m2 CLR
04:14 -18.1 °C -18.7 °C 34740.4 hPa Calm     92 % 0 mm 0.0 W/m2 CLR
04:19 -17.8 °C -18.4 °C 34726.8 hPa Calm     92 % 0 mm 0.0 W/m2 CLR
04:24 -17.8 °C -18.4 °C 34726.8 hPa Calm     92 % 0 mm 0.0 W/m2 CLR
04:29 -17.8 °C -18.3 °C 34726.8 hPa Calm     93 % 0 mm 0.0 W/m2 CLR
04:34 -17.8 °C -18.3 °C 34726.8 hPa Calm     93 % 0 mm 0.0 W/m2 CLR
04:39 -17.8 °C -18.3 °C 34726.8 hPa Calm     93 % 0 mm 0.0 W/m2 CLR
04:44 -17.8 °C -18.3 °C 34726.8 hPa Calm     93 % 0 mm 0.0 W/m2 CLR
04:49 -17.8 °C -18.4 °C 34716.7 hPa Calm     92 % 0 mm 0.0 W/m2 CLR
04:54 -17.8 °C -18.4 °C 34716.7 hPa Calm     92 % 0 mm 0.0 W/m2 CLR
04:59 -17.8 °C -18.4 °C 34716.7 hPa Calm     92 % 0 mm 0.0 W/m2 CLR
05:04 -17.8 °C -18.3 °C 34716.7 hPa Calm     93 % 0 mm 0.0 W/m2 CLR
05:09 -17.8 °C -18.3 °C 34716.7 hPa Calm     93 % 0 mm 0.0 W/m2 CLR
05:14 -17.8 °C -18.3 °C 34716.7 hPa Calm     93 % 0 mm 0.0 W/m2 CLR
05:19 -17.8 °C -18.3 °C 34716.7 hPa Calm     93 % 0 mm 0.0 W/m2 CLR
05:24 -17.8 °C -18.3 °C 34716.7 hPa Calm     93 % 0 mm 0.0 W/m2 CLR
05:29 -17.8 °C -18.3 °C 34716.7 hPa Calm     93 % 0 mm 0.0 W/m2 CLR
05:34 -17.8 °C -18.3 °C 34703.1 hPa Calm     93 % 0 mm 0.0 W/m2 CLR
05:39 -17.8 °C -18.3 °C 34703.1 hPa Calm     93 % 0 mm 0.0 W/m2 CLR
05:44 -17.8 °C -18.3 °C 34703.1 hPa Calm     93 % 0 mm 0.0 W/m2 CLR
05:49 -17.4 °C -18 °C 34716.7 hPa Calm     93 % 0 mm 0.0 W/m2 CLR
05:54 -17.2 °C -17.7 °C 34703.1 hPa Calm     93 % 0 mm 0.0 W/m2 CLR
05:59 -17.2 °C -17.7 °C 34703.1 hPa Calm     93 % 7.62 mm 0.0 W/m2 RA
06:04 -17.2 °C -17.7 °C 34703.1 hPa Calm     93 % 7.62 mm 0.0 W/m2
06:09 -17.2 °C -17.7 °C 34703.1 hPa Calm     93 % 7.62 mm 0.0 W/m2 CLR
06:14 -17.2 °C -17.7 °C 34703.1 hPa Calm     93 % 7.62 mm 0.0 W/m2 CLR
06:19 -17.2 °C -17.7 °C 34703.1 hPa Calm     93 % 7.62 mm 0.0 W/m2 CLR
06:24 -17.2 °C -17.7 °C 34703.1 hPa Calm     93 % 7.62 mm 0.0 W/m2 CLR
06:29 -17.2 °C -17.7 °C 34693 hPa Calm     93 % 7.62 mm 0.0 W/m2 CLR
06:34 -17.4 °C -18 °C 34703.1 hPa Calm     93 % 7.62 mm 0.0 W/m2 CLR
06:39 -17.4 °C -18 °C 34703.1 hPa Calm     93 % 7.62 mm 0.0 W/m2 CLR
06:44 -17.4 °C -18 °C 34703.1 hPa Calm     93 % 7.62 mm 0.0 W/m2 CLR
06:49 -17.8 °C -18.3 °C 34703.1 hPa Calm     93 % 7.62 mm 0.0 W/m2 CLR
06:54 -17.4 °C -18 °C 34703.1 hPa Calm     93 % 7.62 mm 0.0 W/m2 CLR
06:59 -17.4 °C -18 °C 34703.1 hPa Calm     93 % 0 mm 0.0 W/m2 CLR
07:04 -17.8 °C -18.3 °C 34693 hPa Calm     93 % 0 mm 0.0 W/m2 CLR
07:09 -17.8 °C -18.3 °C 34693 hPa Calm     93 % 0 mm 0.0 W/m2 CLR
07:14 -17.8 °C -18.3 °C 34693 hPa Calm     93 % 0 mm 0.0 W/m2 CLR
07:19 -17.8 °C -18.3 °C 34693 hPa Calm     93 % 0 mm 0.0 W/m2 CLR
07:24 -17.8 °C -18.3 °C 34693 hPa Calm     93 % 0 mm 0.0 W/m2 CLR
07:29 -17.8 °C -18.3 °C 34693 hPa Calm     93 % 0 mm 0.0 W/m2 CLR
07:34 -17.8 °C -18.3 °C 34693 hPa Calm     93 % 0 mm 0.0 W/m2 CLR
07:39 -17.8 °C -18.3 °C 34693 hPa Calm     93 % 0 mm 0.0 W/m2 CLR
07:44 -17.8 °C -18.3 °C 34693 hPa Calm     93 % 0 mm 0.0 W/m2 CLR
07:49 -17.8 °C -18.3 °C 34693 hPa Calm     93 % 0 mm 0.0 W/m2 CLR
07:54 -17.8 °C -18.3 °C 34693 hPa Calm     93 % 0 mm 0.0 W/m2 CLR
07:59 -17.8 °C -18.3 °C 34693 hPa Calm     93 % 0 mm 0.0 W/m2 CLR
08:04 -17.8 °C -18.3 °C 34693 hPa Calm     93 % 0 mm 0.0 W/m2 CLR
08:09 -17.8 °C -18.3 °C 34693 hPa Calm     93 % 0 mm 0.0 W/m2 OVC
08:14 -17.8 °C -18.3 °C 34693 hPa Calm     93 % 0 mm 0.0 W/m2 OVC
08:19 -17.8 °C -18.3 °C 34693 hPa Calm     93 % 0 mm 5.0 W/m2 OVC
08:24 -17.8 °C -18.3 °C 34682.8 hPa Calm     93 % 0 mm 9.0 W/m2 BKN
08:29 -17.8 °C -18.3 °C 34693 hPa Calm     93 % 0 mm 14.0 W/m2 BKN
08:34 -17.8 °C -18.3 °C 34693 hPa Calm     93 % 0 mm 19.0 W/m2 BKN
08:39 -17.8 °C -18.3 °C 34693 hPa Calm     93 % 0 mm 30.0 W/m2 BKN
08:44 -17.8 °C -18.3 °C 34682.8 hPa Calm     93 % 0 mm 39.0 W/m2 BKN
08:49 -17.8 °C -18.3 °C 34682.8 hPa Calm     93 % 0 mm 46.0 W/m2 BKN
08:54 -17.8 °C -18.3 °C 34682.8 hPa Calm     93 % 0 mm 47.0 W/m2 SCT
08:59 -17.4 °C -18 °C 34682.8 hPa Calm     93 % 0 mm 44.0 W/m2 BKN
09:04 -17.4 °C -18 °C 34682.8 hPa Calm     93 % 0 mm 49.0 W/m2 SCT
09:09 -17.4 °C -18 °C 34682.8 hPa Calm     93 % 0 mm 56.0 W/m2 SCT
09:14 -17.4 °C -18 °C 34682.8 hPa Calm     93 % 0 mm 65.0 W/m2 SCT
09:19 -17.4 °C -18 °C 34682.8 hPa Calm     93 % 0 mm 72.0 W/m2 SCT
09:24 -17.2 °C -17.6 °C 34682.8 hPa Calm     94 % 0 mm 77.0 W/m2 FEW
09:29 -17.2 °C -17.6 °C 34682.8 hPa Calm     94 % 0 mm 79.0 W/m2 FEW
09:34 -17.2 °C -17.7 °C 34682.8 hPa Calm     93 % 0 mm 79.0 W/m2 FEW
09:39 -16.8 °C -17.3 °C 34682.8 hPa Calm     94 % 0 mm 81.0 W/m2 FEW
09:45 -16.8 °C -17.3 °C 34682.8 hPa Calm     94 % 0 mm 93.0 W/m2 FEW
09:50 -16.8 °C -17.3 °C 34682.8 hPa Calm     94 % 0 mm 100.0 W/m2 CLR
09:55 -16.6 °C -17.1 °C 34669.3 hPa Calm     93 % 0 mm 109.0 W/m2 CLR
10:00 -16.6 °C -17.1 °C 34682.8 hPa Calm     94 % 0 mm 105.0 W/m2 CLR
10:05 -16.6 °C -17.1 °C 34682.8 hPa Calm     94 % 0 mm 102.0 W/m2 CLR
10:10 -16.2 °C -16.7 °C 34669.3 hPa Calm     94 % 0 mm 102.0 W/m2 CLR
10:15 -16.2 °C -16.7 °C 34669.3 hPa Calm     94 % 0 mm 102.0 W/m2 CLR
10:20 -16.2 °C -16.7 °C 34669.3 hPa Calm     94 % 0 mm 114.0 W/m2 CLR
10:25 -15.9 °C -16.4 °C 34669.3 hPa Calm     94 % 0 mm 120.0 W/m2 CLR
10:30 -15.6 °C -16.1 °C 34669.3 hPa Calm     94 % 0 mm 128.0 W/m2 CLR
10:35 -15.6 °C -16.1 °C 34669.3 hPa Calm     94 % 0 mm 116.0 W/m2 CLR
10:40 -15.6 °C -16.1 °C 34669.3 hPa Calm     94 % 0 mm 114.0 W/m2 CLR
10:45 -15.3 °C -15.8 °C 34659.1 hPa Calm     94 % 0 mm 148.0 W/m2 CLR
10:50 -15.3 °C -15.8 °C 34659.1 hPa Calm     94 % 0 mm 202.0 W/m2 CLR
10:55 -15.3 °C -15.8 °C 34659.1 hPa Calm     94 % 0 mm 211.0 W/m2 CLR
11:00 -15 °C -15.5 °C 34659.1 hPa Calm     94 % 0 mm 218.0 W/m2 CLR
11:05 -15 °C -15.5 °C 34659.1 hPa Calm     94 % 0 mm 223.0 W/m2 CLR
11:10 -14.7 °C -15.2 °C 34659.1 hPa Calm     94 % 0 mm 357.0 W/m2 CLR
11:15 -14.4 °C -14.9 °C 34645.6 hPa Calm     94 % 0 mm 281.0 W/m2 CLR
11:20 -14.4 °C -14.9 °C 34659.1 hPa Calm     94 % 0 mm 413.0 W/m2 CLR
11:25 -14.1 °C -14.6 °C 34645.6 hPa Calm     94 % 0 mm 411.0 W/m2 CLR
11:30 -14.1 °C -14.6 °C 34645.6 hPa Calm     94 % 0 mm 338.0 W/m2 CLR
11:35 -13.8 °C -14.3 °C 34645.6 hPa Calm     94 % 0 mm 606.0 W/m2 CLR
11:40 -13.4 °C -13.9 °C 34645.6 hPa Calm     94 % 0 mm 548.0 W/m2 CLR
11:45 -13.2 °C -13.7 °C 34635.4 hPa Calm     94 % 0 mm 543.0 W/m2 CLR
11:50 -13.2 °C -13.7 °C 34635.4 hPa Calm     94 % 0 mm 399.0 W/m2 CLR
11:55 -12.8 °C -13.3 °C 34635.4 hPa Calm     94 % 0 mm 316.0 W/m2 CLR
12:00 -12.8 °C -13.3 °C 34635.4 hPa NE 7.7 km/h 7.7 km/h 94 % 0 mm 276.0 W/m2 CLR
12:05 -12.8 °C -13.4 °C 34625.2 hPa Calm     93 % 0 mm 341.0 W/m2 CLR
12:10 -12.8 °C -13.4 °C 34625.2 hPa ENE 6 km/h 6 km/h 93 % 0 mm 441.0 W/m2 CLR
12:15 -12.6 °C -13.1 °C 34625.2 hPa Calm     93 % 0 mm 445.0 W/m2 CLR
12:20 -12.6 °C -13.1 °C 34611.7 hPa ENE 9 km/h 9 km/h 93 % 0 mm 454.0 W/m2 CLR
12:25 -12.6 °C -13.2 °C 34611.7 hPa East 9 km/h 9 km/h 92 % 0 mm 443.0 W/m2 CLR
12:30 -12.6 °C -13.3 °C 34601.5 hPa East 6 km/h 6 km/h 91 % 0 mm 345.0 W/m2 CLR
12:35 -12.2 °C -13 °C 34601.5 hPa ENE 9 km/h 9 km/h 91 % 0 mm 341.0 W/m2 CLR
12:40 -12.2 °C -13.1 °C 34591.4 hPa Calm     90 % 0 mm 388.0 W/m2 CLR
12:45 -11.9 °C -12.8 °C 34591.4 hPa Calm     90 % 0 mm 390.0 W/m2 CLR
12:50 -11.9 °C -12.9 °C 34591.4 hPa NE 3.1 km/h 3.1 km/h 89 % 0 mm 413.0 W/m2 CLR
12:55 -11.9 °C -12.9 °C 34591.4 hPa ENE 3.1 km/h 3.1 km/h 89 % 0 mm 454.0 W/m2 CLR
13:00 -11.6 °C -12.7 °C 34591.4 hPa NE 11.9 km/h 11.9 km/h 87 % 0 mm 336.0 W/m2 CLR
13:05 -11.6 °C -12.9 °C 34577.8 hPa NE 6 km/h 6 km/h 86 % 0 mm 471.0 W/m2 CLR
13:10 -11.3 °C -12.6 °C 34577.8 hPa ENE 9 km/h 9 km/h 86 % 0 mm 418.0 W/m2 CLR
13:15 -11.3 °C -12.7 °C 34567.7 hPa NE 6 km/h 6 km/h 84 % 0 mm 369.0 W/m2 CLR
13:20 -11.3 °C -12.7 °C 34567.7 hPa ENE 9 km/h 9 km/h 84 % 0 mm 329.0 W/m2 CLR
13:25 -11.3 °C -12.8 °C 34567.7 hPa ENE 20.8 km/h 20.8 km/h 83 % 0 mm 313.0 W/m2 CLR
13:30 -11.3 °C -12.8 °C 34567.7 hPa NE 11.9 km/h 11.9 km/h 83 % 0 mm 353.0 W/m2 CLR
13:35 -11.3 °C -12.7 °C 34554.1 hPa Calm     84 % 0 mm 367.0 W/m2 CLR
13:40 -11.3 °C -12.8 °C 34554.1 hPa ENE 10.3 km/h 10.3 km/h 83 % 0 mm 380.0 W/m2 CLR
13:45 -11.3 °C -12.8 °C 34554.1 hPa East 15 km/h 15 km/h 83 % 0 mm 332.0 W/m2 CLR
13:50 -11.3 °C -12.9 °C 34544 hPa ENE 9 km/h 9 km/h 82 % 0 mm 281.0 W/m2 CLR
13:56 -11.3 °C -12.9 °C 34544 hPa ENE 15 km/h 15 km/h 82 % 0 mm 313.0 W/m2 CLR
14:01 -11.6 °C -13.2 °C 34533.8 hPa East 20.9 km/h 20.9 km/h 82 % 0 mm 301.0 W/m2 CLR
14:06 -11.6 °C -13.2 °C 34533.8 hPa ENE 10.3 km/h 15.3 km/h 83 % 0 mm 341.0 W/m2 CLR
14:11 -11.3 °C -12.8 °C 34533.8 hPa East 11.9 km/h 11.9 km/h 83 % 0 mm 345.0 W/m2 CLR
14:16 -11.3 °C -12.9 °C 34520.3 hPa ENE 11.9 km/h 11.9 km/h 82 % 0 mm 294.0 W/m2 CLR
14:21 -11.3 °C -12.8 °C 34520.3 hPa ENE 9 km/h   83 % 0 mm 304.0 W/m2 CLR
14:26 -11.3 °C -12.9 °C 34520.3 hPa ENE 15.6 km/h 15.6 km/h 82 % 0 mm 258.0 W/m2 CLR
14:31 -11.3 °C -12.9 °C 34520.3 hPa ENE 15 km/h 15 km/h 82 % 0 mm 260.0 W/m2 CLR
14:36 -11.3 °C -12.9 °C 34520.3 hPa NE 6 km/h   82 % 0 mm 378.0 W/m2 CLR
14:41 -11 °C -12.7 °C 34510.1 hPa ENE 6 km/h 6.3 km/h 82 % 0 mm 334.0 W/m2 CLR
14:46 -11 °C -12.7 °C 34510.1 hPa East 11.9 km/h 11.9 km/h 81 % 0 mm 436.0 W/m2 CLR
14:51 -10.7 °C -12.4 °C 34510.1 hPa ENE 15.6 km/h 15.6 km/h 81 % 0 mm 325.0 W/m2 CLR
14:56 -10.7 °C -12.6 °C 34510.1 hPa ENE 20.9 km/h 20.9 km/h 80 % 0 mm 420.0 W/m2 CLR
15:01 -10.7 °C -12.6 °C 34510.1 hPa NE 23.8 km/h 23.8 km/h 80 % 0 mm 374.0 W/m2 CLR
15:06 -10.4 °C -12.3 °C 34496.6 hPa ENE 15 km/h 15 km/h 79 % 0 mm 427.0 W/m2 CLR
15:11 -10.4 °C -12.3 °C 34496.6 hPa NNE 9 km/h 9 km/h 79 % 0 mm 446.0 W/m2 CLR
15:16 -10.4 °C -12.3 °C 34496.6 hPa Calm     79 % 0 mm 292.0 W/m2 CLR
15:21 -10.1 °C -12.2 °C 34496.6 hPa NE 15 km/h 15 km/h 78 % 0 mm 353.0 W/m2 CLR
15:26 -10.4 °C -12.4 °C 34496.6 hPa Calm     78 % 0 mm 355.0 W/m2 CLR
15:31 -10.4 °C -12.7 °C 34486.4 hPa Calm     76 % 0 mm 229.0 W/m2 CLR
15:36 -10.4 °C -12.6 °C 34486.4 hPa East 11.9 km/h 11.9 km/h 77 % 0 mm 255.0 W/m2 CLR
15:41 -10.1 °C -12.4 °C 34486.4 hPa NE 11.9 km/h 11.9 km/h 76 % 0 mm 214.0 W/m2 CLR
15:46 -10.4 °C -12.6 °C 34486.4 hPa ENE 9 km/h 9 km/h 77 % 0 mm 362.0 W/m2 CLR
15:51 -10.1 °C -12.3 °C 34486.4 hPa ESE 9 km/h 9 km/h 77 % 0 mm 343.0 W/m2 CLR
15:56 -9.8 °C -12.2 °C 34476.3 hPa ESE 23.8 km/h 23.8 km/h 75 % 0 mm 225.0 W/m2 CLR
16:01 -10.1 °C -12.6 °C 34476.3 hPa ESE 17.9 km/h 17.9 km/h 74 % 0 mm 227.0 W/m2 CLR
16:06 -10.1 °C -12.6 °C 34476.3 hPa East 23.8 km/h 23.8 km/h 74 % 0 mm 302.0 W/m2 CLR
16:11 -10.1 °C -12.6 °C 34476.3 hPa ESE 15 km/h 15 km/h 74 % 0 mm 207.0 W/m2 CLR
16:16 -10.1 °C -12.6 °C 34476.3 hPa ENE 15 km/h 15 km/h 74 % 0 mm 223.0 W/m2 CLR
16:21 -10.1 °C -12.6 °C 34486.4 hPa NE 29.8 km/h 29.8 km/h 74 % 0 mm 134.0 W/m2 CLR
16:26 -10.1 °C -12.4 °C 34486.4 hPa NE 29.8 km/h 29.8 km/h 75 % 0 mm 107.0 W/m2 CLR
16:31 -10.4 °C -12.8 °C 34476.3 hPa NE 9 km/h 9 km/h 75 % 0 mm 111.0 W/m2 CLR
16:36 -10.4 °C -12.7 °C 34486.4 hPa NNE 15 km/h 15 km/h 76 % 0 mm 109.0 W/m2 CLR
16:41 -10.7 °C -12.9 °C 34486.4 hPa North 23.8 km/h 23.8 km/h 77 % 0 mm 95.0 W/m2 CLR
16:46 -10.7 °C -12.7 °C 34486.4 hPa NNE 29.8 km/h 29.8 km/h 79 % 0 mm 91.0 W/m2 CLR
16:51 -11 °C -12.8 °C 34486.4 hPa NNE 31.1 km/h 31.1 km/h 80 % 0 mm 86.0 W/m2 CLR
16:56 -11.3 °C -12.9 °C 34486.4 hPa North 23.8 km/h 23.8 km/h 82 % 0 mm 79.0 W/m2 CLR
17:01 -11.3 °C -12.9 °C 34486.4 hPa NNE 26.9 km/h 26.9 km/h 82 % 0 mm 72.0 W/m2 FEW
17:06 -11.6 °C -13.2 °C 34486.4 hPa Calm     83 % 0 mm 67.0 W/m2 FEW
17:11 -11.6 °C -13.1 °C 34486.4 hPa Calm     84 % 0 mm 56.0 W/m2 SCT
17:16 -11.6 °C -13.1 °C 34486.4 hPa Calm     84 % 0 mm 51.0 W/m2 SCT
17:21 -11.6 °C -13.1 °C 34486.4 hPa North 20.9 km/h 20.9 km/h 84 % 0 mm 47.0 W/m2 SCT
17:26 -11.6 °C -13.1 °C 34486.4 hPa Calm     84 % 0 mm 37.0 W/m2 BKN
17:31 -11.9 °C -13.4 °C 34486.4 hPa Calm     84 % 0 mm 26.0 W/m2 BKN
17:36 -11.9 °C -13.3 °C 34486.4 hPa Calm     85 % 0 mm 21.0 W/m2 BKN
17:41 -11.9 °C -13.3 °C 34476.3 hPa Calm     85 % 0 mm 19.0 W/m2 BKN
17:46 -11.9 °C -13.3 °C 34476.3 hPa Calm     85 % 0 mm 14.0 W/m2 BKN
17:51 -11.9 °C -13.3 °C 34476.3 hPa Calm     85 % 0 mm 11.0 W/m2 BKN
17:56 -12.2 °C -13.4 °C 34486.4 hPa Calm     86 % 0 mm 7.0 W/m2 BKN
18:01 -12.2 °C -13.4 °C 34486.4 hPa Calm     86 % 0 mm 5.0 W/m2 OVC
18:06 -12.2 °C -13.4 °C 34486.4 hPa Calm     87 % 0 mm 0.0 W/m2 OVC
18:17 -12.6 °C -13.7 °C 34486.4 hPa Calm     87 % 0 mm 0.0 W/m2 CLR
18:22 -12.6 °C -13.7 °C 34486.4 hPa Calm     87 % 0 mm 0.0 W/m2 CLR
18:27 -12.6 °C -13.7 °C 34486.4 hPa Calm     87 % 0 mm 0.0 W/m2 CLR
18:32 -12.8 °C -14 °C 34486.4 hPa Calm     87 % 0 mm 0.0 W/m2 CLR
18:37 -12.8 °C -14 °C 34486.4 hPa Calm     87 % 0 mm 0.0 W/m2 CLR
18:42 -12.8 °C -14 °C 34486.4 hPa Calm     87 % 0 mm 0.0 W/m2 CLR
18:47 -12.8 °C -14 °C 34486.4 hPa Calm     87 % 0 mm 0.0 W/m2 CLR
18:52 -12.8 °C -13.9 °C 34486.4 hPa Calm     88 % 0 mm 0.0 W/m2 CLR
18:57 -12.8 °C -13.9 °C 34486.4 hPa Calm     88 % 0 mm 0.0 W/m2 CLR
19:02 -12.8 °C -13.9 °C 34486.4 hPa Calm     88 % 0 mm 0.0 W/m2 CLR
19:07 -12.8 °C -13.9 °C 34486.4 hPa Calm     88 % 0 mm 0.0 W/m2 CLR
19:12 -12.8 °C -13.9 °C 34486.4 hPa Calm     88 % 0 mm 0.0 W/m2 CLR
19:17 -12.8 °C -13.9 °C 34486.4 hPa Calm     88 % 0 mm 0.0 W/m2 CLR
19:22 -13.2 °C -14.2 °C 34496.6 hPa Calm     88 % 0 mm 0.0 W/m2 CLR
19:27 -13.2 °C -14.2 °C 34496.6 hPa Calm     88 % 0 mm 0.0 W/m2 CLR
19:33 -13.2 °C -14.2 °C 34486.4 hPa Calm     88 % 0 mm 0.0 W/m2 CLR
19:38 -13.2 °C -14.1 °C 34496.6 hPa Calm     89 % 0 mm 0.0 W/m2 CLR
19:43 -13.2 °C -14.2 °C 34496.6 hPa Calm     88 % 0 mm 0.0 W/m2 CLR
19:48 -13.2 °C -14.2 °C 34496.6 hPa Calm     88 % 0 mm 0.0 W/m2 CLR
19:53 -12.8 °C -13.8 °C 34496.6 hPa Calm     89 % 0 mm 0.0 W/m2 CLR
19:58 -12.8 °C -13.8 °C 34496.6 hPa NNW 23.8 km/h 23.8 km/h 89 % 0 mm 0.0 W/m2 CLR
20:03 -12.8 °C -13.8 °C 34496.6 hPa NNW 7.7 km/h 7.7 km/h 89 % 0 mm 0.0 W/m2 CLR
20:08 -12.6 °C -13.5 °C 34496.6 hPa North 29.8 km/h 29.8 km/h 89 % 0 mm 0.0 W/m2 CLR
20:13 -12.6 °C -13.5 °C 34510.1 hPa NNW 29.8 km/h 29.8 km/h 89 % 0 mm 0.0 W/m2 CLR
20:18 -12.6 °C -13.5 °C 34510.1 hPa NNW 29.8 km/h 29.8 km/h 89 % 0 mm 0.0 W/m2 CLR
20:23 -12.6 °C -13.5 °C 34510.1 hPa North 29.8 km/h 29.8 km/h 89 % 0 mm 0.0 W/m2 CLR
20:28 -12.6 °C -13.5 °C 34510.1 hPa North 29.8 km/h 29.8 km/h 89 % 0 mm 0.0 W/m2 CLR
20:33 -12.6 °C -13.4 °C 34496.6 hPa NNW 33.6 km/h 33.6 km/h 90 % 0 mm 0.0 W/m2 CLR
20:38 -12.6 °C -13.5 °C 34510.1 hPa NNW 29.8 km/h 29.8 km/h 89 % 0 mm 0.0 W/m2 CLR
20:43 -12.6 °C -13.4 °C 34510.1 hPa North 35.7 km/h 35.7 km/h 90 % 0 mm 0.0 W/m2 CLR
20:48 -12.6 °C -13.4 °C 34510.1 hPa NNW 29.8 km/h 29.8 km/h 90 % 0 mm 0.0 W/m2 CLR
20:53 -12.6 °C -13.4 °C 34510.1 hPa North 29.8 km/h 29.8 km/h 90 % 0 mm 0.0 W/m2 CLR
20:58 -12.6 °C -13.4 °C 34496.6 hPa NNW 29.8 km/h 29.8 km/h 90 % 0 mm 0.0 W/m2 CLR
21:03 -12.6 °C -13.4 °C 34496.6 hPa NNW 23.8 km/h 23.8 km/h 90 % 0 mm 0.0 W/m2 CLR
21:08 -12.6 °C -13.4 °C 34496.6 hPa North 26.9 km/h 26.9 km/h 90 % 0 mm 0.0 W/m2 CLR
21:13 -12.6 °C -13.4 °C 34496.6 hPa NNW 20.9 km/h 20.9 km/h 90 % 0 mm 0.0 W/m2 CLR
21:18 -12.6 °C -13.4 °C 34496.6 hPa North 23.8 km/h 23.8 km/h 90 % 0 mm 0.0 W/m2 CLR
21:23 -12.6 °C -13.4 °C 34496.6 hPa NNW 15.6 km/h 15.6 km/h 90 % 0 mm 0.0 W/m2 CLR
21:28 -12.6 °C -13.4 °C 34496.6 hPa North 20.9 km/h 20.9 km/h 90 % 0 mm 0.0 W/m2 CLR
21:33 -12.6 °C -13.4 °C 34496.6 hPa NNW 23.8 km/h 23.8 km/h 90 % 0 mm 0.0 W/m2 CLR
21:38 -12.6 °C -13.4 °C 34496.6 hPa Calm     90 % 0 mm 0.0 W/m2 CLR
21:43 -12.6 °C -13.4 °C 34496.6 hPa Calm     90 % 0 mm 0.0 W/m2 CLR
21:48 -12.6 °C -13.4 °C 34486.4 hPa Calm     90 % 0 mm 0.0 W/m2 CLR
21:53 -12.6 °C -13.3 °C 34496.6 hPa Calm     91 % 0 mm 0.0 W/m2 CLR
21:58 -12.6 °C -13.3 °C 34496.6 hPa Calm     91 % 0 mm 0.0 W/m2 CLR
22:03 -12.6 °C -13.3 °C 34486.4 hPa Calm     91 % 0 mm 0.0 W/m2 CLR
22:08 -12.6 °C -13.3 °C 34486.4 hPa North 23.8 km/h 23.8 km/h 91 % 0 mm 0.0 W/m2 CLR
22:13 -12.6 °C -13.3 °C 34486.4 hPa NNW 25.9 km/h 25.9 km/h 91 % 0 mm 0.0 W/m2 CLR
22:18 -12.6 °C -13.3 °C 34486.4 hPa North 29.8 km/h 29.8 km/h 91 % 0 mm 0.0 W/m2 CLR
22:23 -12.6 °C -13.3 °C 34486.4 hPa North 23.8 km/h 23.8 km/h 91 % 7.62 mm 0.0 W/m2 RA
22:28 -12.6 °C -13.3 °C 34486.4 hPa North 29.8 km/h 29.8 km/h 91 % 12.7 mm 0.0 W/m2 RA
22:33 -12.8 °C -13.6 °C 34486.4 hPa North 29.8 km/h 29.8 km/h 91 % 25.4 mm 0.0 W/m2 RA
22:38 -12.8 °C -13.6 °C 34486.4 hPa North 20.9 km/h 20.9 km/h 91 % 38.1 mm 0.0 W/m2 RA
22:43 -12.8 °C -13.6 °C 34486.4 hPa North 32.8 km/h 32.8 km/h 91 % 50.8 mm 0.0 W/m2 RA
22:48 -12.8 °C -13.6 °C 34486.4 hPa NNW 26.9 km/h 26.9 km/h 91 % 58.42 mm 0.0 W/m2 RA
22:53 -12.8 °C -13.6 °C 34486.4 hPa NNW 26.9 km/h 26.9 km/h 91 % 63.5 mm 0.0 W/m2 RA
22:58 -12.8 °C -13.6 °C 34486.4 hPa North 26.9 km/h 26.9 km/h 91 % 71.12 mm 0.0 W/m2 RA
23:03 -12.8 °C -13.6 °C 34486.4 hPa North 20.9 km/h 20.9 km/h 91 % 76.2 mm 0.0 W/m2 RA
23:08 -12.8 °C -13.6 °C 34486.4 hPa North 26.9 km/h 26.9 km/h 91 % 83.82 mm 0.0 W/m2 RA
23:13 -12.8 °C -13.5 °C 34486.4 hPa North 26.9 km/h 26.9 km/h 92 % 83.82 mm 0.0 W/m2 RA
23:18 -12.8 °C -13.5 °C 34486.4 hPa NNW 26.9 km/h 26.9 km/h 92 % 91.44 mm 0.0 W/m2 RA
23:23 -12.8 °C -13.5 °C 34486.4 hPa North 23.8 km/h 23.8 km/h 92 % 91.44 mm 0.0 W/m2 RA
23:28 -12.8 °C -13.6 °C 34486.4 hPa NNW 29.8 km/h 29.8 km/h 91 % 83.82 mm 0.0 W/m2 RA
23:33 -12.8 °C -13.6 °C 34486.4 hPa NNW 20.9 km/h 20.9 km/h 91 % 76.2 mm 0.0 W/m2
23:38 -12.8 °C -13.6 °C 34486.4 hPa NNW 26.9 km/h 26.9 km/h 91 % 58.42 mm 0.0 W/m2 CLR
23:43 -12.8 °C -13.6 °C 34486.4 hPa North 28.5 km/h 28.5 km/h 91 % 50.8 mm 0.0 W/m2 CLR
23:48 -12.8 °C -13.6 °C 34496.6 hPa North 29.8 km/h 29.8 km/h 91 % 50.8 mm 0.0 W/m2 RA
23:53 -12.8 °C -13.6 °C 34496.6 hPa North 35.7 km/h 35.7 km/h 91 % 38.1 mm 0.0 W/m2
23:58 -12.8 °C -13.6 °C 34486.4 hPa North 38.8 km/h 38.8 km/h 91 % 38.1 mm 0.0 W/m2 CLR
Lo Temps de Massalio
Compliments of Weather Underground - 1.25 mb